createdAt,value
2023-02-26T00:01:43.932Z,96433.34
2023-02-26T00:04:12.361Z,96440.75
2023-02-26T00:06:53.110Z,96436.13
2023-02-26T00:09:23.370Z,96412.94
2023-02-26T00:11:53.423Z,96431.09
2023-02-26T00:14:22.197Z,96426.44
2023-02-26T00:16:59.349Z,96425.25
2023-02-26T00:19:27.797Z,96434.00
2023-02-26T00:21:56.525Z,96443.16
2023-02-26T00:24:24.655Z,96442.72
2023-02-26T00:26:55.448Z,96450.22
2023-02-26T00:29:24.028Z,96451.06
2023-02-26T00:31:52.865Z,96450.63
2023-02-26T00:34:21.863Z,96456.13
2023-02-26T00:36:59.454Z,96460.38
2023-02-26T00:39:40.182Z,96456.69
2023-02-26T00:42:10.682Z,96447.25
2023-02-26T00:44:40.864Z,96451.16
2023-02-26T00:47:15.267Z,96451.16
2023-02-26T00:49:57.961Z,96442.25
2023-02-26T00:52:32.571Z,96439.84
2023-02-26T00:55:00.725Z,96434.00
2023-02-26T00:57:30.192Z,96425.66
2023-02-26T00:59:58.334Z,96426.09
2023-02-26T01:02:27.100Z,96425.53
2023-02-26T01:04:56.350Z,96418.81
2023-02-26T01:07:26.105Z,96423.25
2023-02-26T01:09:54.809Z,96429.03
2023-02-26T01:12:23.423Z,96434.03
2023-02-26T01:14:53.617Z,96431.53
2023-02-26T01:17:26.526Z,96436.75
2023-02-26T01:19:58.020Z,96445.28
2023-02-26T01:22:32.804Z,96442.22
2023-02-26T01:25:05.068Z,96436.31
2023-02-26T01:27:33.799Z,96429.06
2023-02-26T01:30:05.089Z,96432.41
2023-02-26T01:32:43.875Z,96430.66
2023-02-26T01:35:33.336Z,96444.66
2023-02-26T01:38:05.700Z,96457.16
2023-02-26T01:41:04.222Z,96453.09
2023-02-26T01:43:40.762Z,96441.88
2023-02-26T01:46:17.773Z,96434.34
2023-02-26T01:48:52.403Z,96428.34
2023-02-26T01:51:38.480Z,96417.31
2023-02-26T01:54:07.049Z,96418.66
2023-02-26T01:56:35.588Z,96421.63
2023-02-26T01:59:06.060Z,96428.81
2023-02-26T02:01:38.113Z,96433.63
2023-02-26T02:04:09.776Z,96434.13
2023-02-26T02:06:38.227Z,96445.34
2023-02-26T02:09:07.676Z,96443.88
2023-02-26T02:11:36.944Z,96448.63
2023-02-26T02:14:13.851Z,96448.19
2023-02-26T02:16:50.089Z,96453.34
2023-02-26T02:19:56.098Z,96438.88
2023-02-26T02:22:42.044Z,96445.81
2023-02-26T02:25:33.072Z,96447.84
2023-02-26T02:28:14.273Z,96450.38
2023-02-26T02:30:58.086Z,96455.44
2023-02-26T02:33:34.296Z,96459.13
2023-02-26T02:36:06.454Z,96459.13
2023-02-26T02:38:39.906Z,96455.88
2023-02-26T02:41:12.384Z,96459.00
2023-02-26T02:43:43.632Z,96457.16
2023-02-26T02:46:17.263Z,96474.22
2023-02-26T02:48:50.004Z,96474.72
2023-02-26T02:51:24.414Z,96480.38
2023-02-26T02:53:57.096Z,96479.31
2023-02-26T02:56:29.388Z,96490.69
2023-02-26T02:59:04.643Z,96487.44
2023-02-26T03:01:37.292Z,96494.00
2023-02-26T03:04:09.415Z,96492.22
2023-02-26T03:06:38.373Z,96499.91
2023-02-26T03:09:08.986Z,96493.97
2023-02-26T03:11:38.247Z,96509.50
2023-02-26T03:14:10.312Z,96497.56
2023-02-26T03:16:55.879Z,96497.06
2023-02-26T03:19:31.295Z,96516.50
2023-02-26T03:22:06.135Z,96523.56
2023-02-26T03:25:01.843Z,96527.06
2023-02-26T03:27:35.567Z,96533.34
2023-02-26T03:30:08.932Z,96541.25
2023-02-26T03:32:53.641Z,96535.56
2023-02-26T03:35:31.350Z,96532.13
2023-02-26T03:38:04.464Z,96535.97
2023-02-26T03:40:38.745Z,96538.84
2023-02-26T03:43:13.771Z,96543.38
2023-02-26T03:45:46.688Z,96539.81
2023-02-26T03:48:22.174Z,96522.25
2023-02-26T03:50:53.234Z,96533.47
2023-02-26T03:53:47.180Z,96531.66
2023-02-26T03:56:23.058Z,96526.44
2023-02-26T03:59:10.223Z,96523.09
2023-02-26T04:01:50.978Z,96511.63
2023-02-26T04:04:26.516Z,96515.41
2023-02-26T04:06:55.356Z,96527.34
2023-02-26T04:09:24.163Z,96526.16
2023-02-26T04:11:55.938Z,96538.03
2023-02-26T04:14:24.655Z,96540.53
2023-02-26T04:16:55.004Z,96545.81
2023-02-26T04:19:25.128Z,96540.91
2023-02-26T04:21:54.143Z,96540.97
2023-02-26T04:24:22.615Z,96541.84
2023-02-26T04:26:50.813Z,96549.78
2023-02-26T04:29:19.260Z,96545.34
2023-02-26T04:31:47.938Z,96551.88
2023-02-26T04:34:16.198Z,96559.41
2023-02-26T04:36:45.924Z,96555.78
2023-02-26T04:39:14.929Z,96567.44
2023-02-26T04:41:43.185Z,96561.97
2023-02-26T04:44:11.330Z,96569.16
2023-02-26T04:46:42.724Z,96572.41
2023-02-26T04:49:11.482Z,96579.16
2023-02-26T04:51:43.323Z,96580.59
2023-02-26T04:54:15.140Z,96569.34
2023-02-26T04:56:43.541Z,96583.94
2023-02-26T04:59:11.744Z,96591.63
2023-02-26T05:01:40.115Z,96586.19
2023-02-26T05:04:09.754Z,96591.28
2023-02-26T05:06:38.437Z,96590.25
2023-02-26T05:09:07.262Z,96591.69
2023-02-26T05:11:36.920Z,96598.72
2023-02-26T05:14:08.192Z,96606.00
2023-02-26T05:16:36.885Z,96605.88
2023-02-26T05:19:05.019Z,96595.66
2023-02-26T05:21:33.231Z,96602.91
2023-02-26T05:24:01.422Z,96608.97
2023-02-26T05:26:29.669Z,96616.72
2023-02-26T05:28:59.437Z,96609.81
2023-02-26T05:31:28.468Z,96610.09
2023-02-26T05:33:56.646Z,96620.13
2023-02-26T05:36:25.097Z,96624.75
2023-02-26T05:38:54.170Z,96611.88
2023-02-26T05:41:22.346Z,96614.91
2023-02-26T05:43:50.519Z,96620.13
2023-02-26T05:46:20.150Z,96608.41
2023-02-26T05:48:48.380Z,96612.31
2023-02-26T05:51:16.554Z,96622.63
2023-02-26T05:53:44.661Z,96623.34
2023-02-26T05:56:12.968Z,96624.19
2023-02-26T05:58:41.107Z,96626.47
2023-02-26T06:01:09.267Z,96624.59
2023-02-26T06:03:40.353Z,96618.84
2023-02-26T06:06:09.513Z,96622.94
2023-02-26T06:08:38.498Z,96627.66
2023-02-26T06:11:07.170Z,96633.47
2023-02-26T06:13:35.280Z,96642.44
2023-02-26T06:16:03.557Z,96651.19
2023-02-26T06:18:33.797Z,96659.19
2023-02-26T06:21:03.499Z,96665.63
2023-02-26T06:23:31.611Z,96668.13
2023-02-26T06:26:00.151Z,96675.81
2023-02-26T06:28:28.346Z,96670.34
2023-02-26T06:30:56.705Z,96670.59
2023-02-26T06:33:24.823Z,96676.06
2023-02-26T06:35:53.503Z,96679.47
2023-02-26T06:38:23.117Z,96681.69
2023-02-26T06:40:51.283Z,96681.88
2023-02-26T06:43:19.390Z,96682.25
2023-02-26T06:45:47.643Z,96679.91
2023-02-26T06:48:15.811Z,96674.81
2023-02-26T06:50:43.992Z,96686.38
2023-02-26T06:53:12.087Z,96694.56
2023-02-26T06:55:46.012Z,96693.69
2023-02-26T06:58:14.683Z,96700.50
2023-02-26T07:00:43.063Z,96700.03
2023-02-26T07:03:14.605Z,96701.41
2023-02-26T07:05:43.192Z,96695.28
2023-02-26T07:08:11.361Z,96703.38
2023-02-26T07:10:39.863Z,96710.16
2023-02-26T07:13:09.558Z,96700.59
2023-02-26T07:15:37.729Z,96710.81
2023-02-26T07:18:06.072Z,96713.16
2023-02-26T07:20:34.313Z,96705.06
2023-02-26T07:23:02.991Z,96714.81
2023-02-26T07:25:31.198Z,96712.84
2023-02-26T07:28:00.074Z,96725.94
2023-02-26T07:30:30.026Z,96727.06
2023-02-26T07:32:58.871Z,96713.97
2023-02-26T07:35:27.406Z,96722.56
2023-02-26T07:37:55.594Z,96718.75
2023-02-26T07:40:23.732Z,96732.47
2023-02-26T07:42:51.927Z,96739.91
2023-02-26T07:45:22.567Z,96738.28
2023-02-26T07:47:54.118Z,96732.19
2023-02-26T07:50:24.976Z,96736.28
2023-02-26T07:52:54.098Z,96739.84
2023-02-26T07:55:22.751Z,96743.53
2023-02-26T07:57:51.348Z,96743.19
2023-02-26T08:00:20.353Z,96737.19
2023-02-26T08:02:48.856Z,96736.56
2023-02-26T08:05:18.694Z,96746.88
2023-02-26T08:07:46.966Z,96746.47
2023-02-26T08:10:15.072Z,96752.06
2023-02-26T08:12:43.324Z,96750.88
2023-02-26T08:15:14.441Z,96747.31
2023-02-26T08:17:42.809Z,96749.44
2023-02-26T08:20:14.948Z,96758.88
2023-02-26T08:22:44.565Z,96755.66
2023-02-26T08:25:13.483Z,96758.16
2023-02-26T08:27:41.703Z,96752.50
2023-02-26T08:30:11.250Z,96769.66
2023-02-26T08:32:42.393Z,96776.00
2023-02-26T08:35:11.120Z,96791.88
2023-02-26T08:37:39.613Z,96804.59
2023-02-26T08:40:12.491Z,96803.72
2023-02-26T08:42:42.363Z,96788.28
2023-02-26T08:45:11.549Z,96792.50
2023-02-26T08:47:53.958Z,96805.78
2023-02-26T08:50:23.731Z,96816.03
2023-02-26T08:52:51.889Z,96816.84
2023-02-26T08:55:21.587Z,96833.06
2023-02-26T08:57:49.802Z,96844.88
2023-02-26T09:00:19.426Z,96840.16
2023-02-26T09:02:47.849Z,96842.84
2023-02-26T09:05:16.491Z,96850.81
2023-02-26T09:07:45.743Z,96848.41
2023-02-26T09:10:15.399Z,96861.38
2023-02-26T09:12:45.401Z,96860.25
2023-02-26T09:15:15.264Z,96872.69
2023-02-26T09:17:43.844Z,96849.47
2023-02-26T09:20:13.792Z,96856.00
2023-02-26T09:22:42.447Z,96860.78
2023-02-26T09:25:11.830Z,96869.28
2023-02-26T09:27:40.092Z,96869.09
2023-02-26T09:30:12.251Z,96875.56
2023-02-26T09:32:40.475Z,96875.28
2023-02-26T09:35:09.986Z,96868.88
2023-02-26T09:37:38.318Z,96868.88
2023-02-26T09:40:07.901Z,96869.56
2023-02-26T09:42:55.825Z,96876.16
2023-02-26T09:45:30.333Z,96874.91
2023-02-26T09:47:59.732Z,96878.19
2023-02-26T09:50:36.241Z,96880.88
2023-02-26T09:53:13.814Z,96872.81
2023-02-26T09:55:45.149Z,96877.28
2023-02-26T09:58:19.871Z,96883.00
2023-02-26T10:00:59.663Z,96887.63
2023-02-26T10:03:34.427Z,96882.34
2023-02-26T10:06:19.488Z,96874.38
2023-02-26T10:09:00.167Z,96882.13
2023-02-26T10:11:35.521Z,96873.19
2023-02-26T10:14:08.441Z,96897.81
2023-02-26T10:16:42.472Z,96887.75
2023-02-26T10:19:17.208Z,96885.88
2023-02-26T10:21:50.670Z,96882.00
2023-02-26T10:24:24.209Z,96902.84
2023-02-26T10:26:56.724Z,96897.53
2023-02-26T10:29:35.518Z,96902.56
2023-02-26T10:32:20.594Z,96896.97
2023-02-26T10:34:54.033Z,96894.38
2023-02-26T10:37:30.454Z,96884.22
2023-02-26T10:40:09.585Z,96897.25
2023-02-26T10:42:42.475Z,96892.97
2023-02-26T10:45:26.017Z,96894.38
2023-02-26T10:48:06.499Z,96900.53
2023-02-26T10:50:35.018Z,96904.47
2023-02-26T10:53:03.955Z,96926.53
2023-02-26T10:55:42.021Z,96910.56
2023-02-26T10:58:14.657Z,96911.53
2023-02-26T11:00:46.803Z,96928.50
2023-02-26T11:03:19.986Z,96922.56
2023-02-26T11:05:50.311Z,96921.22
2023-02-26T11:08:24.655Z,96915.31
2023-02-26T11:10:55.536Z,96913.31
2023-02-26T11:13:25.261Z,96904.88
2023-02-26T11:15:55.885Z,96895.53
2023-02-26T11:18:31.228Z,96912.94
2023-02-26T11:21:03.037Z,96910.31
2023-02-26T11:23:33.879Z,96907.38
2023-02-26T11:26:07.114Z,96916.19
2023-02-26T11:28:38.996Z,96904.66
2023-02-26T11:31:11.352Z,96908.19
2023-02-26T11:33:45.202Z,96895.16
2023-02-26T11:36:17.305Z,96907.84
2023-02-26T11:38:48.362Z,96903.41
2023-02-26T11:41:19.011Z,96907.94
2023-02-26T11:43:52.867Z,96906.78
2023-02-26T11:46:26.167Z,96903.53
2023-02-26T11:48:59.976Z,96904.25
2023-02-26T11:51:30.978Z,96912.09
2023-02-26T11:54:01.666Z,96907.56
2023-02-26T11:56:34.417Z,96917.00
2023-02-26T11:59:09.711Z,96911.03
2023-02-26T12:01:40.024Z,96909.00
2023-02-26T12:04:12.599Z,96917.06
2023-02-26T12:06:42.410Z,96920.56
2023-02-26T12:09:14.145Z,96921.22
2023-02-26T12:12:18.170Z,96914.00
2023-02-26T12:14:58.756Z,96916.81
2023-02-26T12:17:59.459Z,96919.72
2023-02-26T12:20:36.943Z,96923.56
2023-02-26T12:23:27.387Z,96930.84
2023-02-26T12:26:25.982Z,96943.25
2023-02-26T12:29:15.706Z,96949.06
2023-02-26T12:32:11.161Z,96953.00
2023-02-26T12:34:59.645Z,96964.59
2023-02-26T12:37:45.392Z,96964.81
2023-02-26T12:40:34.297Z,96968.59
2023-02-26T12:43:09.499Z,96973.53
2023-02-26T12:45:49.093Z,96976.63
2023-02-26T12:48:45.882Z,96980.84
2023-02-26T12:51:26.591Z,96982.50
2023-02-26T12:54:33.043Z,96978.00
2023-02-26T12:57:44.930Z,96989.88
2023-02-26T13:00:29.273Z,96981.81
2023-02-26T13:03:30.953Z,96989.44
2023-02-26T13:06:21.838Z,96997.53
2023-02-26T13:09:03.898Z,96996.63
2023-02-26T13:11:47.781Z,97000.47
2023-02-26T13:14:31.592Z,97002.66
2023-02-26T13:17:11.511Z,97001.31
2023-02-26T13:19:50.335Z,96999.91
2023-02-26T13:22:25.125Z,97009.47
2023-02-26T13:24:59.243Z,97002.06
2023-02-26T13:27:33.555Z,97007.44
2023-02-26T13:30:19.239Z,97010.97
2023-02-26T13:32:50.940Z,97018.84
2023-02-26T13:35:24.152Z,97018.84
2023-02-26T13:37:56.369Z,97017.19
2023-02-26T13:40:45.528Z,97019.56
2023-02-26T13:43:33.759Z,97029.97
2023-02-26T13:46:21.721Z,97021.13
2023-02-26T13:49:00.763Z,97034.88
2023-02-26T13:51:37.786Z,97029.06
2023-02-26T13:54:20.469Z,97019.63
2023-02-26T13:56:55.612Z,97019.25
2023-02-26T13:59:47.723Z,97029.03
2023-02-26T14:02:48.609Z,97034.75
2023-02-26T14:05:53.851Z,97035.81
2023-02-26T14:08:57.382Z,97036.38
2023-02-26T14:11:47.724Z,97039.09
2023-02-26T14:14:26.123Z,97052.16
2023-02-26T14:17:44.091Z,97045.50
2023-02-26T14:20:24.410Z,97055.16
2023-02-26T14:23:14.455Z,97062.31
2023-02-26T14:25:49.254Z,97060.63
2023-02-26T14:28:43.008Z,97059.81
2023-02-26T14:31:22.629Z,97056.13
2023-02-26T14:34:11.648Z,97050.31
2023-02-26T14:36:47.016Z,97062.50
2023-02-26T14:39:26.981Z,97050.31
2023-02-26T14:42:00.713Z,97053.78
2023-02-26T14:44:33.468Z,97058.34
2023-02-26T14:47:04.283Z,97073.97
2023-02-26T14:49:36.849Z,97066.75
2023-02-26T14:52:41.390Z,97066.50
2023-02-26T14:55:47.772Z,97082.75
2023-02-26T14:59:06.672Z,97082.91
2023-02-26T15:01:53.673Z,97086.94
2023-02-26T15:04:49.727Z,97081.22
2023-02-26T15:07:42.746Z,97105.28
2023-02-26T15:10:31.518Z,97098.75
2023-02-26T15:13:23.399Z,97093.19
2023-02-26T15:15:58.629Z,97099.94
2023-02-26T15:19:11.090Z,97103.53
2023-02-26T15:21:53.669Z,97114.28
2023-02-26T15:24:25.232Z,97118.94
2023-02-26T15:26:58.513Z,97123.31
2023-02-26T15:29:32.939Z,97120.63
2023-02-26T15:32:18.296Z,97125.66
2023-02-26T15:34:49.515Z,97122.50
2023-02-26T15:37:24.443Z,97124.31
2023-02-26T15:39:56.587Z,97132.13
2023-02-26T15:42:34.205Z,97134.09
2023-02-26T15:45:07.590Z,97139.38
2023-02-26T15:47:41.128Z,97142.97
2023-02-26T15:50:16.219Z,97152.00
2023-02-26T15:52:46.283Z,97155.34
2023-02-26T15:55:19.626Z,97167.84
2023-02-26T15:57:50.429Z,97157.38
2023-02-26T16:00:25.384Z,97166.84
2023-02-26T16:02:57.588Z,97161.41
2023-02-26T16:05:30.216Z,97173.44
2023-02-26T16:07:59.949Z,97179.16
2023-02-26T16:10:38.214Z,97182.56
2023-02-26T16:13:12.250Z,97180.75
2023-02-26T16:15:42.962Z,97193.03
2023-02-26T16:18:18.768Z,97192.25
2023-02-26T16:20:49.923Z,97189.13
2023-02-26T16:23:22.707Z,97201.41
2023-02-26T16:25:56.706Z,97196.03
2023-02-26T16:28:31.200Z,97205.78
2023-02-26T16:31:05.801Z,97202.16
2023-02-26T16:33:39.713Z,97215.47
2023-02-26T16:36:16.211Z,97217.31
2023-02-26T16:38:48.334Z,97225.16
2023-02-26T16:41:26.432Z,97228.78
2023-02-26T16:43:58.511Z,97234.00
2023-02-26T16:46:36.719Z,97238.53
2023-02-26T16:49:11.811Z,97242.09
2023-02-26T16:51:44.003Z,97248.22
2023-02-26T16:54:24.947Z,97250.06
2023-02-26T16:57:00.850Z,97260.53
2023-02-26T16:59:33.666Z,97263.47
2023-02-26T17:02:14.937Z,97265.72
2023-02-26T17:04:45.114Z,97271.78
2023-02-26T17:07:23.091Z,97273.59
2023-02-26T17:09:54.840Z,97282.31
2023-02-26T17:12:32.643Z,97277.09
2023-02-26T17:15:13.862Z,97287.34
2023-02-26T17:17:44.153Z,97289.38
2023-02-26T17:20:15.407Z,97291.72
2023-02-26T17:22:47.164Z,97293.38
2023-02-26T17:25:19.298Z,97298.44
2023-02-26T17:27:54.834Z,97301.13
2023-02-26T17:30:30.312Z,97298.69
2023-02-26T17:33:01.000Z,97302.81
2023-02-26T17:35:31.974Z,97306.31
2023-02-26T17:38:02.990Z,97319.22
2023-02-26T17:40:38.650Z,97316.38
2023-02-26T17:43:10.679Z,97320.91
2023-02-26T17:45:43.067Z,97313.06
2023-02-26T17:48:17.360Z,97317.16
2023-02-26T17:50:49.791Z,97328.88
2023-02-26T17:53:20.977Z,97329.94
2023-02-26T17:55:52.546Z,97324.91
2023-02-26T17:58:29.626Z,97335.81
2023-02-26T18:01:04.686Z,97319.38
2023-02-26T18:03:35.204Z,97339.44
2023-02-26T18:06:06.278Z,97337.84
2023-02-26T18:08:36.197Z,97335.53
2023-02-26T18:11:06.956Z,97347.03
2023-02-26T18:13:38.558Z,97341.19
2023-02-26T18:16:09.591Z,97349.56
2023-02-26T18:18:39.994Z,97356.50
2023-02-26T18:21:10.621Z,97352.13
2023-02-26T18:23:41.874Z,97356.66
2023-02-26T18:26:13.440Z,97361.31
2023-02-26T18:28:45.883Z,97362.00
2023-02-26T18:31:17.800Z,97368.22
2023-02-26T18:33:49.806Z,97361.34
2023-02-26T18:36:30.349Z,97367.53
2023-02-26T18:39:01.629Z,97360.78
2023-02-26T18:41:33.197Z,97367.78
2023-02-26T18:44:06.603Z,97365.25
2023-02-26T18:46:40.276Z,97368.78
2023-02-26T18:49:17.616Z,97361.00
2023-02-26T18:51:46.588Z,97371.91
2023-02-26T18:54:26.011Z,97374.47
2023-02-26T18:56:57.508Z,97374.56
2023-02-26T18:59:29.001Z,97373.66
2023-02-26T19:02:00.646Z,97380.09
2023-02-26T19:04:31.744Z,97379.06
2023-02-26T19:07:04.435Z,97382.78
2023-02-26T19:09:35.783Z,97381.28
2023-02-26T19:12:05.817Z,97389.97
2023-02-26T19:14:37.699Z,97384.03
2023-02-26T19:17:10.658Z,97391.56
2023-02-26T19:19:41.588Z,97389.94
2023-02-26T19:22:12.115Z,97396.25
2023-02-26T19:24:44.842Z,97402.41
2023-02-26T19:27:17.356Z,97395.38
2023-02-26T19:29:48.880Z,97402.16
2023-02-26T19:32:23.671Z,97400.72
2023-02-26T19:34:54.296Z,97403.34
2023-02-26T19:37:24.598Z,97407.59
2023-02-26T19:39:54.842Z,97408.56
2023-02-26T19:42:29.020Z,97419.84
2023-02-26T19:45:02.422Z,97417.19
2023-02-26T19:47:32.201Z,97426.66
2023-02-26T19:50:04.492Z,97434.59
2023-02-26T19:52:34.520Z,97433.16
2023-02-26T19:55:05.652Z,97428.31
2023-02-26T19:57:36.457Z,97444.03
2023-02-26T20:00:12.732Z,97443.38
2023-02-26T20:02:43.507Z,97446.81
2023-02-26T20:05:18.528Z,97451.09
2023-02-26T20:07:51.131Z,97452.88
2023-02-26T20:10:24.228Z,97446.84
2023-02-26T20:15:39.034Z,97460.75
2023-02-26T20:18:11.894Z,97463.50
2023-02-26T20:20:42.049Z,97467.88
2023-02-26T20:23:15.174Z,97473.25
2023-02-26T20:25:49.224Z,97470.88
2023-02-26T20:28:19.879Z,97477.84
2023-02-26T20:30:50.527Z,97484.81
2023-02-26T20:33:21.681Z,97485.81
2023-02-26T20:35:53.125Z,97493.69
2023-02-26T20:38:24.283Z,97492.75
2023-02-26T20:40:54.582Z,97495.41
2023-02-26T20:43:25.507Z,97504.03
2023-02-26T20:45:57.184Z,97511.91
2023-02-26T20:48:27.692Z,97511.63
2023-02-26T20:51:01.905Z,97508.94
2023-02-26T20:53:31.987Z,97513.38
2023-02-26T20:56:02.725Z,97512.75
2023-02-26T20:58:31.976Z,97526.88
2023-02-26T21:01:02.865Z,97526.88
2023-02-26T21:03:32.416Z,97536.31
2023-02-26T21:06:01.803Z,97537.41
2023-02-26T21:08:31.747Z,97541.78
2023-02-26T21:11:01.864Z,97539.97
2023-02-26T21:13:31.360Z,97544.16
2023-02-26T21:16:03.820Z,97551.81
2023-02-26T21:18:33.958Z,97538.31
2023-02-26T21:21:05.930Z,97549.59
2023-02-26T21:23:38.171Z,97548.53
2023-02-26T21:26:08.474Z,97554.31
2023-02-26T21:28:37.135Z,97554.13
2023-02-26T21:31:08.017Z,97556.75
2023-02-26T21:33:36.508Z,97549.16
2023-02-26T21:36:06.473Z,97552.00
2023-02-26T21:38:35.555Z,97559.84
2023-02-26T21:41:03.967Z,97558.19
2023-02-26T21:43:32.831Z,97558.06
2023-02-26T21:46:01.438Z,97550.09
2023-02-26T21:48:31.666Z,97563.50
2023-02-26T21:51:00.626Z,97563.06
2023-02-26T21:53:29.313Z,97575.34
2023-02-26T21:55:58.234Z,97579.44
2023-02-26T21:58:26.645Z,97572.75
2023-02-26T22:00:54.973Z,97577.81
2023-02-26T22:03:23.075Z,97579.50
2023-02-26T22:05:53.583Z,97576.81
2023-02-26T22:08:21.699Z,97575.03
2023-02-26T22:10:49.868Z,97579.22
2023-02-26T22:13:17.958Z,97584.53
2023-02-26T22:15:46.535Z,97587.09
2023-02-26T22:18:14.634Z,97578.56
2023-02-26T22:20:43.109Z,97578.56
2023-02-26T22:23:12.673Z,97590.72
2023-02-26T22:25:41.069Z,97595.78
2023-02-26T22:28:09.271Z,97589.63
2023-02-26T22:30:37.584Z,97598.38
2023-02-26T22:33:05.810Z,97596.94
2023-02-26T22:35:34.027Z,97601.19
2023-02-26T22:38:02.135Z,97613.31
2023-02-26T22:40:31.688Z,97610.69
2023-02-26T22:43:00.096Z,97611.59
2023-02-26T22:45:28.364Z,97609.97
2023-02-26T22:47:56.583Z,97615.22
2023-02-26T22:50:25.171Z,97620.41
2023-02-26T22:52:53.300Z,97623.50
2023-02-26T22:55:21.457Z,97627.84
2023-02-26T22:57:51.072Z,97626.22
2023-02-26T23:00:20.894Z,97629.13
2023-02-26T23:02:50.379Z,97631.69
2023-02-26T23:05:20.440Z,97628.28
2023-02-26T23:07:49.321Z,97632.81
2023-02-26T23:10:21.502Z,97631.22
2023-02-26T23:12:51.112Z,97629.63
2023-02-26T23:15:19.417Z,97639.44
2023-02-26T23:17:47.520Z,97635.88
2023-02-26T23:20:16.984Z,97651.00
2023-02-26T23:22:45.284Z,97645.97
2023-02-26T23:25:13.436Z,97654.50
2023-02-26T23:27:41.506Z,97653.06
2023-02-26T23:30:12.853Z,97656.72
2023-02-26T23:32:41.056Z,97653.22
2023-02-26T23:35:09.907Z,97654.84
2023-02-26T23:37:38.073Z,97661.63
2023-02-26T23:40:07.743Z,97665.97
2023-02-26T23:42:35.834Z,97661.03
2023-02-26T23:45:04.116Z,97663.38
2023-02-26T23:47:33.957Z,97678.88
2023-02-26T23:50:02.038Z,97680.34
2023-02-26T23:52:30.142Z,97683.41
2023-02-26T23:54:58.280Z,97684.28
2023-02-26T23:57:26.621Z,97683.47
2023-02-26T23:59:54.725Z,97684.09
